Time;durP1;ratioP1;P1;durP2;ratioP2;P2;SDS_P1;SDS_P2;PMS_P1;PMS_P2;Temp;Humidity;BMP_temperature;BMP_pressure;BME280_temperature;BME280_humidity;BME280_pressure;Samples;Min_cycle;Max_cycle;Signal;HPM_P1;HPM_P2
2021/03/09 00:00:54;;;;;;;18.33;8.50;;;;;;;-1.63;83.13;99080.09;5036115;28;20029;-73
2021/03/09 00:03:20;;;;;;;23.90;9.75;;;;;;;-1.40;81.54;99082.78;5022922;28;20057;-73
2021/03/09 00:05:45;;;;;;;19.52;9.10;;;;;;;-1.46;80.83;99083.25;5019000;28;20053;-73
2021/03/09 00:08:12;;;;;;;20.10;9.77;;;;;;;-1.65;80.45;99063.47;5017079;28;20105;-73
2021/03/09 00:10:38;;;;;;;22.30;9.70;;;;;;;-1.65;80.70;99074.09;5034395;28;20079;-73
2021/03/09 00:13:03;;;;;;;23.33;10.15;;;;;;;-1.59;80.89;99092.16;5034910;28;20438;-73
2021/03/09 00:15:28;;;;;;;18.13;8.70;;;;;;;-1.87;81.21;99071.41;5006343;28;20065;-73
2021/03/09 00:17:53;;;;;;;20.33;9.43;;;;;;;-2.01;81.53;99073.31;5013701;28;20033;-73
2021/03/09 00:20:19;;;;;;;17.20;9.23;;;;;;;-1.91;82.30;99078.75;5004170;28;20033;-73
2021/03/09 00:22:44;;;;;;;20.25;9.00;;;;;;;-1.87;82.60;99085.50;5007686;28;20018;-73
2021/03/09 00:25:10;;;;;;;19.83;9.73;;;;;;;-1.93;83.05;99077.19;5015246;28;20034;-73
2021/03/09 00:27:35;;;;;;;19.95;8.73;;;;;;;-1.88;82.64;99080.31;5031292;28;20108;-73
2021/03/09 00:30:01;;;;;;;20.02;9.63;;;;;;;-1.93;82.81;99079.84;5029476;28;20148;-73
2021/03/09 00:32:26;;;;;;;21.13;9.20;;;;;;;-1.97;82.59;99081.84;4998741;28;20031;-73
2021/03/09 00:34:51;;;;;;;16.45;7.88;;;;;;;-2.00;82.75;99074.97;4994895;28;20081;-73
2021/03/09 00:37:17;;;;;;;18.92;9.55;;;;;;;-2.06;82.82;99054.25;5012703;28;20029;-73
2021/03/09 00:39:42;;;;;;;22.52;9.60;;;;;;;-1.99;82.71;99075.84;5014348;28;20155;-73
2021/03/09 00:42:08;;;;;;;19.95;10.05;;;;;;;-2.10;83.08;99073.97;5013502;28;20030;-73
2021/03/09 00:44:33;;;;;;;20.65;9.77;;;;;;;-2.27;83.28;99062.03;5012416;28;20464;-73
2021/03/09 00:46:59;;;;;;;19.17;9.13;;;;;;;-2.19;83.38;99064.09;5032680;28;20032;-73
2021/03/09 00:49:24;;;;;;;20.30;10.05;;;;;;;-2.34;84.03;99065.25;5024513;28;20021;-73
2021/03/09 00:51:51;;;;;;;19.73;9.98;;;;;;;-2.30;83.62;99064.06;5011141;28;20034;-73
2021/03/09 00:54:16;;;;;;;21.77;9.63;;;;;;;-2.29;83.66;99060.44;5009586;28;20064;-73
2021/03/09 00:56:41;;;;;;;21.98;9.73;;;;;;;-2.06;83.55;99078.09;5011014;28;20420;-73
2021/03/09 00:59:06;;;;;;;22.48;10.80;;;;;;;-2.00;83.83;99068.84;4998473;28;20036;-73
2021/03/09 01:01:32;;;;;;;22.90;9.93;;;;;;;-2.10;82.20;99044.81;5006368;28;20025;-73
2021/03/09 01:03:57;;;;;;;18.40;9.45;;;;;;;-2.01;82.53;99048.59;4995256;28;20030;-73
2021/03/09 01:06:22;;;;;;;25.35;9.80;;;;;;;-1.93;83.15;99064.75;5022024;28;20543;-73
2021/03/09 01:08:48;;;;;;;20.67;9.70;;;;;;;-1.96;82.91;99056.22;5006844;28;20054;-73
2021/03/09 01:11:13;;;;;;;20.33;10.52;;;;;;;-2.01;82.70;99060.03;5011084;28;20093;-73
2021/03/09 01:13:38;;;;;;;19.45;10.13;;;;;;;-2.13;82.49;99063.63;5013535;28;20056;-73
2021/03/09 01:16:04;;;;;;;24.08;11.07;;;;;;;-2.28;82.63;99051.53;5011241;28;20034;-73
2021/03/09 01:18:29;;;;;;;22.95;10.77;;;;;;;-2.18;82.69;99051.69;4994695;28;20022;-73
2021/03/09 01:20:55;;;;;;;26.38;11.82;;;;;;;-2.23;83.06;99063.50;5009786;28;20057;-73
2021/03/09 01:23:20;;;;;;;26.98;11.80;;;;;;;-2.29;83.56;99065.75;5003384;28;20028;-73
2021/03/09 01:25:45;;;;;;;26.20;11.48;;;;;;;-2.33;83.63;99053.69;5027441;28;20087;-73
2021/03/09 01:28:11;;;;;;;25.23;10.90;;;;;;;-2.32;83.50;99052.75;5027821;28;20018;-72
2021/03/09 01:30:36;;;;;;;24.55;11.15;;;;;;;-2.42;83.27;99050.75;5018308;28;20031;-73
2021/03/09 01:33:02;;;;;;;22.13;11.55;;;;;;;-2.33;83.49;99048.38;5022019;28;20530;-73
2021/03/09 01:35:27;;;;;;;25.52;10.63;;;;;;;-2.27;83.15;99050.59;5021341;28;20025;-73
2021/03/09 01:37:53;;;;;;;24.33;10.95;;;;;;;-2.33;83.24;99035.13;5016927;28;20109;-73
2021/03/09 01:40:20;;;;;;;24.63;10.40;;;;;;;-2.42;83.58;99031.38;5028634;28;20079;-73
2021/03/09 01:42:45;;;;;;;26.02;12.05;;;;;;;-2.45;83.70;99028.97;5028718;28;20029;-73
2021/03/09 01:45:11;;;;;;;20.88;10.73;;;;;;;-2.36;83.55;99035.38;5028023;28;20109;-73
2021/03/09 01:47:41;;;;;;;22.58;11.82;;;;;;;-2.61;83.98;99023.97;5032656;28;20056;-73
2021/03/09 01:50:08;;;;;;;22.02;11.52;;;;;;;-2.61;84.48;99026.63;5027814;28;20028;-73
2021/03/09 01:52:34;;;;;;;22.90;11.55;;;;;;;-2.60;84.72;99028.31;5015569;28;20029;-73
2021/03/09 01:55:00;;;;;;;29.83;12.05;;;;;;;-2.53;84.50;99018.94;5001982;28;20026;-73
2021/03/09 01:57:26;;;;;;;23.10;11.32;;;;;;;-2.48;83.83;99016.78;5007522;28;20488;-73
2021/03/09 01:59:53;;;;;;;25.02;11.45;;;;;;;-2.42;84.55;99018.13;5013752;28;20523;-73
2021/03/09 02:02:18;;;;;;;24.20;10.63;;;;;;;-2.50;84.40;99018.72;5017772;28;20049;-73
2021/03/09 02:04:43;;;;;;;26.30;11.02;;;;;;;-2.51;84.24;99008.25;5026867;28;20025;-73
2021/03/09 02:07:09;;;;;;;21.38;11.23;;;;;;;-2.60;84.54;99007.13;5006370;28;20021;-73
2021/03/09 02:09:35;;;;;;;23.02;11.30;;;;;;;-2.67;84.61;99003.25;5013171;28;20033;-73
2021/03/09 02:12:13;;;;;;;28.35;12.07;;;;;;;-2.63;84.74;99002.06;5013026;28;20365;-73
2021/03/09 02:14:52;;;;;;;28.17;12.13;;;;;;;-2.59;84.10;99003.53;5009145;28;20491;-72
2021/03/09 02:17:31;;;;;;;23.92;11.05;;;;;;;-2.71;83.85;98991.19;5013224;28;20476;-73
2021/03/09 02:20:34;;;;;;;23.90;11.63;;;;;;;-2.71;83.26;98994.69;5013249;28;20057;-73
2021/03/09 02:23:43;;;;;;;22.63;11.18;;;;;;;-2.82;84.56;99005.22;5007682;28;20480;-73
2021/03/09 02:26:46;;;;;;;21.17;10.68;;;;;;;-2.71;84.68;99005.28;5009213;28;20064;-72
2021/03/09 02:29:48;;;;;;;20.98;9.60;;;;;;;-2.78;84.76;98997.91;5013254;28;20076;-73
2021/03/09 02:32:16;;;;;;;22.23;9.55;;;;;;;-2.79;83.92;98993.56;5014707;28;20026;-74
2021/03/09 02:34:48;;;;;;;23.42;10.73;;;;;;;-2.72;84.43;98986.88;4993438;28;20048;-72
2021/03/09 02:37:16;;;;;;;22.58;10.40;;;;;;;-2.78;84.48;98987.31;4993538;28;20073;-73
2021/03/09 02:39:45;;;;;;;25.35;11.15;;;;;;;-2.78;84.69;98987.31;5021746;28;20033;-72
2021/03/09 02:42:16;;;;;;;21.63;10.55;;;;;;;-2.89;84.73;98980.16;4993928;28;20054;-75
2021/03/09 02:44:44;;;;;;;25.63;10.90;;;;;;;-2.79;84.47;98982.97;5002936;28;20036;-72
2021/03/09 02:47:14;;;;;;;21.85;10.18;;;;;;;-2.96;84.93;98977.16;5012591;28;20513;-73
2021/03/09 02:49:42;;;;;;;24.65;11.15;;;;;;;-3.07;85.42;98963.84;4998159;28;20073;-73
2021/03/09 02:52:13;;;;;;;18.42;8.38;;;;;;;-3.16;85.55;98961.88;4993381;28;20030;-72
2021/03/09 02:54:41;;;;;;;22.98;10.73;;;;;;;-3.19;85.62;98972.69;5028003;28;20048;-73
2021/03/09 02:57:08;;;;;;;25.67;10.90;;;;;;;-3.17;85.59;98965.47;5032482;28;20104;-72
2021/03/09 02:59:35;;;;;;;24.80;11.43;;;;;;;-3.09;86.28;98979.00;5007487;28;20442;-73
2021/03/09 03:02:01;;;;;;;26.90;11.20;;;;;;;-3.15;86.42;98960.91;5009723;28;20022;-73
2021/03/09 03:04:27;;;;;;;23.40;10.98;;;;;;;-3.04;86.74;98976.00;5016541;28;20383;-73
2021/03/09 03:06:54;;;;;;;22.25;11.07;;;;;;;-2.99;86.29;98973.84;5015756;28;20601;-72
2021/03/09 03:09:20;;;;;;;20.67;10.88;;;;;;;-3.14;86.27;98952.88;5016633;28;20030;-74
2021/03/09 03:11:49;;;;;;;21.25;11.27;;;;;;;-2.95;85.77;98965.59;5016471;28;20472;-72
2021/03/09 03:14:16;;;;;;;27.10;10.73;;;;;;;-3.02;85.55;98953.75;5016401;28;20069;-72
2021/03/09 03:16:43;;;;;;;20.27;9.95;;;;;;;-2.96;85.74;98977.16;5014796;28;20033;-72
2021/03/09 03:19:10;;;;;;;26.10;11.10;;;;;;;-3.02;86.10;98969.63;5016395;28;20061;-72
2021/03/09 03:21:39;;;;;;;24.73;10.75;;;;;;;-3.03;86.14;98970.59;5025760;28;20021;-72
2021/03/09 03:24:07;;;;;;;21.10;9.75;;;;;;;-3.09;85.42;98948.09;5024791;28;20125;-71
2021/03/09 03:26:36;;;;;;;21.67;10.05;;;;;;;-3.14;85.34;98955.53;5014786;28;20022;-72
2021/03/09 03:29:05;;;;;;;21.75;11.13;;;;;;;-3.09;86.03;98963.97;5016064;28;20403;-73
2021/03/09 03:31:31;;;;;;;24.42;10.98;;;;;;;-2.99;85.58;98968.56;5016061;28;20507;-73
2021/03/09 03:33:57;;;;;;;22.85;9.38;;;;;;;-3.01;85.25;98960.75;5007878;28;20041;-72
2021/03/09 03:36:23;;;;;;;21.45;9.88;;;;;;;-3.09;84.62;98956.03;5020748;28;20108;-72
2021/03/09 03:38:49;;;;;;;20.80;9.70;;;;;;;-3.19;84.22;98959.47;5007991;28;20116;-72
2021/03/09 03:41:14;;;;;;;41.83;14.32;;;;;;;-3.09;84.23;98968.44;4997867;28;20037;-73
2021/03/09 03:43:39;;;;;;;45.22;15.40;;;;;;;-3.17;83.96;98968.13;4996288;28;20113;-72
2021/03/09 03:46:06;;;;;;;38.80;13.65;;;;;;;-3.22;83.73;98965.84;4996223;28;20026;-73
2021/03/09 03:48:33;;;;;;;39.88;14.20;;;;;;;-3.32;84.02;98959.53;5003470;28;20108;-72
2021/03/09 03:51:00;;;;;;;41.35;14.63;;;;;;;-3.31;84.43;98964.69;5017231;28;20033;-73
2021/03/09 03:53:58;;;;;;;38.22;14.20;;;;;;;-3.23;84.36;98955.34;5035463;28;20397;-72
2021/03/09 03:56:54;;;;;;;23.80;11.03;;;;;;;-3.09;84.84;98965.78;5034608;28;20021;-72
2021/03/09 03:59:35;;;;;;;28.35;10.60;;;;;;;-3.20;84.10;98957.75;5011847;28;20038;-73
2021/03/09 04:02:04;;;;;;;25.77;11.13;;;;;;;-3.25;84.59;98973.13;5008513;28;20029;-74
2021/03/09 04:04:31;;;;;;;17.33;8.60;;;;;;;-3.22;83.77;98960.53;5014320;28;20029;-73
2021/03/09 04:06:57;;;;;;;21.50;10.35;;;;;;;-3.21;83.45;98964.03;5015248;28;20037;-75
2021/03/09 04:09:24;;;;;;;23.77;10.25;;;;;;;-3.21;83.35;98956.91;5021762;28;20035;-72
2021/03/09 04:11:51;;;;;;;22.15;9.55;;;;;;;-3.35;83.91;98951.81;5011169;28;20022;-73
2021/03/09 04:14:17;;;;;;;22.35;10.32;;;;;;;-3.22;85.16;98957.03;5020164;28;20020;-72
2021/03/09 04:16:45;;;;;;;24.02;10.55;;;;;;;-3.27;85.52;98927.44;5034987;28;20105;-72
2021/03/09 04:19:13;;;;;;;20.90;9.98;;;;;;;-3.17;85.48;98945.16;5032066;28;20025;-73
2021/03/09 04:21:41;;;;;;;24.10;10.57;;;;;;;-3.21;85.56;98943.69;5019731;28;20392;-73
2021/03/09 04:24:07;;;;;;;27.02;11.45;;;;;;;-3.26;85.58;98950.28;5015557;28;20392;-73
2021/03/09 04:26:33;;;;;;;23.20;10.55;;;;;;;-3.39;85.77;98942.41;5014994;28;20036;-73
2021/03/09 04:28:59;;;;;;;23.70;10.60;;;;;;;-3.23;85.29;98944.75;5012878;28;20095;-72
2021/03/09 04:31:25;;;;;;;23.17;10.32;;;;;;;-3.46;84.85;98938.50;5014674;28;20026;-73
2021/03/09 04:33:51;;;;;;;27.00;10.52;;;;;;;-3.35;85.73;98957.09;5006344;28;20057;-72
2021/03/09 04:36:18;;;;;;;23.13;10.73;;;;;;;-3.44;85.98;98942.72;4995299;28;20026;-71
2021/03/09 04:38:45;;;;;;;23.60;10.27;;;;;;;-3.32;85.90;98965.66;5011111;28;20036;-70
2021/03/09 04:41:10;;;;;;;24.13;10.90;;;;;;;-3.40;85.78;98959.25;5020498;28;20022;-70
2021/03/09 04:43:37;;;;;;;24.25;11.65;;;;;;;-3.39;85.67;98935.31;5001085;28;20026;-69
2021/03/09 04:46:02;;;;;;;29.08;11.43;;;;;;;-3.29;84.65;98934.63;5010825;28;20420;-69
2021/03/09 04:48:29;;;;;;;22.75;10.63;;;;;;;-3.20;84.00;98941.88;5002359;28;20034;-71
2021/03/09 04:51:00;;;;;;;25.38;10.85;;;;;;;-3.25;84.48;98966.03;5012812;28;20080;-72
2021/03/09 04:53:26;;;;;;;21.80;10.27;;;;;;;-3.32;84.88;98960.34;5007557;28;20057;-72
2021/03/09 04:55:52;;;;;;;24.02;10.85;;;;;;;-3.17;85.70;98957.53;5015617;28;20026;-72
2021/03/09 04:58:17;;;;;;;20.23;10.10;;;;;;;-3.23;85.89;98950.88;5009090;28;20033;-71
2021/03/09 05:00:42;;;;;;;26.02;11.32;;;;;;;-3.23;86.03;98960.63;5007358;28;20132;-73
2021/03/09 05:03:07;;;;;;;22.85;10.60;;;;;;;-3.29;86.61;98940.78;5001311;28;20022;-71
2021/03/09 05:05:33;;;;;;;25.88;11.00;;;;;;;-3.14;86.28;98931.72;4994952;28;20109;-71
2021/03/09 05:07:58;;;;;;;20.70;10.50;;;;;;;-3.01;85.99;98950.16;5030521;28;20033;-72
2021/03/09 05:10:24;;;;;;;24.40;10.73;;;;;;;-3.13;85.67;98936.03;5014604;28;20034;-74
2021/03/09 05:12:50;;;;;;;20.88;10.48;;;;;;;-3.12;84.86;98948.31;5015060;28;20033;-72
2021/03/09 05:15:18;;;;;;;20.40;10.38;;;;;;;-3.23;83.32;98963.28;5012330;28;20030;-72
2021/03/09 05:17:44;;;;;;;23.20;10.50;;;;;;;-3.33;83.24;98958.69;5004787;28;20081;-73
2021/03/09 05:20:14;;;;;;;19.15;9.57;;;;;;;-3.43;83.00;98944.44;5020665;28;20116;-74
2021/03/09 05:22:40;;;;;;;24.77;11.00;;;;;;;-3.44;83.43;98955.09;5012065;28;20049;-72
2021/03/09 05:25:08;;;;;;;29.50;13.60;;;;;;;-3.44;83.66;98969.19;5013433;28;20103;-73
2021/03/09 05:27:33;;;;;;;27.55;13.10;;;;;;;-3.53;83.57;98953.97;5003030;28;20463;-74
2021/03/09 05:29:58;;;;;;;25.92;12.60;;;;;;;-3.49;83.62;98965.19;5003628;28;20104;-72
2021/03/09 05:32:24;;;;;;;27.52;11.93;;;;;;;-3.52;83.99;98960.94;5006007;28;20034;-74
2021/03/09 05:34:49;;;;;;;20.42;9.77;;;;;;;-3.52;84.19;98959.16;5028454;28;20099;-73
2021/03/09 05:37:14;;;;;;;20.70;11.00;;;;;;;-3.54;83.94;98958.44;4999367;28;20022;-73
2021/03/09 05:39:40;;;;;;;22.45;10.70;;;;;;;-3.48;83.77;98974.78;5006464;28;20071;-74
2021/03/09 05:42:07;;;;;;;25.05;11.90;;;;;;;-3.54;84.48;98957.56;5015635;28;20030;-75
2021/03/09 05:44:33;;;;;;;24.60;10.65;;;;;;;-3.48;84.55;98967.72;5018175;28;20487;-73
2021/03/09 05:46:59;;;;;;;23.90;11.23;;;;;;;-3.56;84.80;98955.06;5001744;28;20041;-75
2021/03/09 05:49:25;;;;;;;26.88;10.65;;;;;;;-3.50;85.58;98964.34;5027515;28;20032;-72
2021/03/09 05:51:50;;;;;;;25.70;11.98;;;;;;;-3.43;85.64;98968.25;5016463;28;20029;-74
2021/03/09 05:54:16;;;;;;;28.02;12.02;;;;;;;-3.46;85.79;98955.22;5012169;28;20036;-74
2021/03/09 05:56:41;;;;;;;22.08;11.65;;;;;;;-3.25;85.86;98968.69;5018966;28;20029;-74
2021/03/09 05:59:07;;;;;;;23.55;10.98;;;;;;;-3.01;85.10;98967.81;5012375;28;20056;-74
2021/03/09 06:01:32;;;;;;;29.45;12.13;;;;;;;-3.09;84.51;98968.44;5009474;28;20439;-74
2021/03/09 06:03:58;;;;;;;25.02;11.50;;;;;;;-3.02;84.38;98961.69;5014437;28;20056;-74
2021/03/09 06:06:24;;;;;;;30.27;12.35;;;;;;;-3.20;84.28;98942.72;5013703;28;20499;-75
2021/03/09 06:08:49;;;;;;;25.27;12.70;;;;;;;-3.14;84.50;98960.81;5018766;28;20063;-70
2021/03/09 06:11:17;;;;;;;28.92;13.07;;;;;;;-3.06;84.73;98949.66;5010477;28;20037;-73
2021/03/09 06:13:43;;;;;;;33.80;13.02;;;;;;;-3.03;84.53;98969.78;5028413;28;20389;-72
2021/03/09 06:16:08;;;;;;;22.60;10.63;;;;;;;-3.09;84.00;98950.75;4998932;28;20030;-73
2021/03/09 06:18:34;;;;;;;23.85;10.77;;;;;;;-2.97;83.88;98962.19;5024378;28;20308;-72
2021/03/09 06:21:15;;;;;;;20.27;11.02;;;;;;;-3.02;84.03;98950.28;5012025;28;20040;-74
2021/03/09 06:23:42;;;;;;;21.58;11.18;;;;;;;-2.89;83.84;98977.50;5021693;28;20132;-74
2021/03/09 06:26:32;;;;;;;25.55;10.52;;;;;;;-2.81;83.19;98972.50;5021405;28;20030;-74
2021/03/09 06:29:15;;;;;;;23.98;10.75;;;;;;;-2.68;83.11;98975.06;4995113;28;20027;-72
2021/03/09 06:32:00;;;;;;;20.30;9.77;;;;;;;-2.72;82.79;98960.38;4994689;28;20026;-72
2021/03/09 06:34:27;;;;;;;23.90;10.57;;;;;;;-2.66;83.44;98974.00;5003166;28;20056;-72
2021/03/09 06:37:16;;;;;;;23.50;11.50;;;;;;;-2.60;83.87;98970.03;5010327;28;20029;-72
2021/03/09 06:39:47;;;;;;;;;;;;;;;-2.49;83.23;98971.88;5014241;28;20030;-74
2021/03/09 06:42:34;;;;;;;22.27;11.07;;;;;;;-2.52;83.11;98972.94;5013753;28;19917;-73
2021/03/09 06:45:12;;;;;;;25.65;10.80;;;;;;;-2.22;82.34;98979.53;5004362;28;20049;-72
2021/03/09 06:47:47;;;;;;;23.17;10.80;;;;;;;-1.96;81.57;98989.94;5011902;28;20497;-79
2021/03/09 06:50:15;;;;;;;21.38;10.85;;;;;;;-1.77;80.41;98984.84;5015310;28;20021;-74
2021/03/09 06:52:42;;;;;;;25.92;10.60;;;;;;;-1.69;79.72;98971.81;5006036;28;20070;-74
2021/03/09 06:55:12;;;;;;;25.27;10.50;;;;;;;-1.59;79.91;98980.75;5009741;28;20033;-75
2021/03/09 06:57:39;;;;;;;22.02;11.18;;;;;;;-1.51;79.86;98985.44;5013135;28;20403;-75
2021/03/09 07:00:07;;;;;;;19.08;9.95;;;;;;;-1.22;78.46;98985.75;5028514;28;20025;-78
2021/03/09 07:02:33;;;;;;;19.88;11.00;;;;;;;-1.01;78.13;98987.63;5013570;28;20439;-78
2021/03/09 07:05:10;;;;;;;22.63;10.32;;;;;;;-0.72;76.90;98980.75;5013046;28;20040;-71
2021/03/09 07:07:39;;;;;;;23.40;10.30;;;;;;;-0.55;76.92;98979.38;5004720;28;20479;-75
2021/03/09 07:10:11;;;;;;;21.27;10.65;;;;;;;-0.31;76.56;98984.44;5012932;28;20112;-77
2021/03/09 07:12:40;;;;;;;17.52;9.77;;;;;;;-0.05;74.49;98978.72;5001881;28;20035;-77
2021/03/09 07:15:09;;;;;;;22.33;10.30;;;;;;;0.28;73.92;98990.91;5008023;28;20022;-76
2021/03/09 07:17:37;;;;;;;16.13;8.10;;;;;;;0.29;72.92;98973.09;5013132;28;20403;-76
2021/03/09 07:20:11;;;;;;;20.37;10.53;;;;;;;0.49;73.15;98990.84;4998828;28;20018;-76
2021/03/09 07:22:38;;;;;;;21.73;10.15;;;;;;;0.42;73.87;98987.88;5003576;28;20033;-73
2021/03/09 07:25:15;;;;;;;16.55;10.25;;;;;;;0.55;73.21;98985.00;5008904;28;20034;-74
2021/03/09 07:27:52;;;;;;;20.15;9.57;;;;;;;0.87;72.45;98994.59;5010465;28;20400;-74
2021/03/09 07:30:19;;;;;;;20.35;10.50;;;;;;;0.96;72.15;98980.44;5012656;28;20049;-75
2021/03/09 07:32:54;;;;;;;21.90;10.93;;;;;;;1.07;72.00;98988.34;5009044;28;20037;-74
2021/03/09 07:35:24;;;;;;;22.90;10.85;;;;;;;0.76;72.86;98992.91;5017101;28;20034;-77
2021/03/09 07:37:51;;;;;;;23.08;10.65;;;;;;;0.70;72.96;98979.28;5027890;28;20064;-76
2021/03/09 07:40:19;;;;;;;17.70;10.45;;;;;;;0.68;73.55;98995.38;4994832;28;20030;-76
2021/03/09 07:42:44;;;;;;;20.17;10.50;;;;;;;0.81;73.77;98981.81;5008134;28;20421;-75
2021/03/09 07:45:13;;;;;;;18.35;9.98;;;;;;;1.18;71.64;98994.47;5004451;28;20159;-75
2021/03/09 07:47:46;;;;;;;20.55;10.13;;;;;;;0.94;71.56;98978.91;5005487;28;20136;-72
2021/03/09 07:50:13;;;;;;;18.40;10.10;;;;;;;0.90;72.92;98980.16;5015003;28;20029;-74
2021/03/09 07:52:38;;;;;;;21.42;10.15;;;;;;;0.87;72.80;98992.78;5001774;28;20034;-74
2021/03/09 07:55:03;;;;;;;24.23;11.68;;;;;;;0.99;72.02;98996.16;5023399;28;20030;-74
2021/03/09 07:57:30;;;;;;;20.48;11.02;;;;;;;1.17;72.24;98975.00;5016713;28;20097;-72
2021/03/09 08:00:06;;;;;;;20.40;10.57;;;;;;;1.08;71.63;98992.66;5015711;28;20080;-73
2021/03/09 08:02:57;;;;;;;18.48;10.55;;;;;;;1.00;72.43;98995.19;5019970;28;20049;-74
2021/03/09 08:05:29;;;;;;;17.52;10.20;;;;;;;1.21;71.80;98991.56;5019993;28;20025;-73
2021/03/09 08:08:03;;;;;;;23.40;11.63;;;;;;;1.21;72.09;98986.25;5013880;28;20026;-77
2021/03/09 08:10:28;;;;;;;19.38;10.77;;;;;;;1.51;71.64;98994.06;5027378;28;20033;-77
2021/03/09 08:12:55;;;;;;;21.65;11.00;;;;;;;1.50;72.53;98995.06;5016256;28;20105;-77
2021/03/09 08:15:21;;;;;;;21.50;11.18;;;;;;;1.77;71.75;98982.84;5013406;28;20022;-74
2021/03/09 08:17:46;;;;;;;22.17;10.57;;;;;;;1.81;70.85;98972.69;5013892;28;20022;-74
2021/03/09 08:20:52;;;;;;;23.35;11.43;;;;;;;2.15;69.97;98991.75;5016819;28;20049;-77
2021/03/09 08:23:35;;;;;;;25.35;10.95;;;;;;;2.22;69.86;98992.81;5004871;28;20049;-78
2021/03/09 08:26:03;;;;;;;20.50;11.50;;;;;;;2.55;68.69;98979.91;5015916;28;20032;-77
2021/03/09 08:28:32;;;;;;;20.42;10.82;;;;;;;2.54;68.66;98975.56;5011831;28;20030;-74
2021/03/09 08:31:13;;;;;;;22.13;12.10;;;;;;;2.74;68.53;98995.84;5031293;28;20043;-73
2021/03/09 08:33:39;;;;;;;21.67;11.90;;;;;;;3.21;67.36;98998.38;5016240;28;20083;-74
2021/03/09 08:36:19;;;;;;;24.45;11.95;;;;;;;3.61;66.98;98991.72;5027174;28;20635;-76
2021/03/09 08:39:05;;;;;;;19.10;10.98;;;;;;;4.31;64.96;98998.91;5027599;28;20029;-72
2021/03/09 08:41:42;;;;;;;24.08;11.13;;;;;;;4.14;65.22;98998.81;5020173;28;20033;-75
2021/03/09 08:44:17;;;;;;;19.15;10.75;;;;;;;4.45;65.00;98995.63;5021120;28;20033;-77
2021/03/09 08:47:08;;;;;;;22.67;11.35;;;;;;;4.50;64.44;98995.16;5000733;28;20030;-73
2021/03/09 08:49:34;;;;;;;28.20;11.95;;;;;;;4.49;65.26;98991.66;5018002;28;20037;-76
2021/03/09 08:52:02;;;;;;;25.08;11.18;;;;;;;4.53;64.24;98990.34;5013750;28;20018;-76
2021/03/09 08:54:32;;;;;;;22.23;11.97;;;;;;;4.37;63.88;98975.00;5020675;23;20038;-71
2021/03/09 08:56:58;;;;;;;;;;;;;;;5.07;62.13;98981.13;4992845;28;20595;-74
2021/03/09 08:59:32;;;;;;;20.45;10.93;;;;;;;5.33;60.63;98963.09;4980505;28;20378;-73
2021/03/09 09:02:17;;;;;;;25.77;11.85;;;;;;;5.69;60.49;98974.34;4979605;28;20077;-73
2021/03/09 09:04:53;;;;;;;21.15;12.40;;;;;;;5.14;62.74;98968.75;4983890;28;20035;-73
2021/03/09 09:07:39;;;;;;;21.27;11.90;;;;;;;5.42;61.51;98962.09;4989602;28;20034;-73
2021/03/09 09:10:15;;;;;;;23.02;12.25;;;;;;;5.87;60.57;98933.06;4992856;28;20053;-76
2021/03/09 09:12:44;;;;;;;22.70;11.32;;;;;;;6.01;59.93;98982.59;4994187;28;20518;-74
2021/03/09 09:15:27;;;;;;;22.10;11.77;;;;;;;5.95;60.56;98951.00;5000503;28;20113;-71
2021/03/09 09:17:59;;;;;;;18.13;11.63;;;;;;;5.93;60.21;98973.53;4986194;28;20400;-70
2021/03/09 09:20:32;;;;;;;21.70;12.02;;;;;;;6.27;59.76;98969.78;5010115;28;20040;-72
2021/03/09 09:23:12;;;;;;;17.17;10.68;;;;;;;6.52;59.00;98958.94;5012352;28;20138;-71
2021/03/09 09:25:40;;;;;;;20.27;11.40;;;;;;;6.86;58.82;98965.84;5002063;28;20030;-69
2021/03/09 09:28:06;;;;;;;20.38;11.15;;;;;;;7.17;58.16;98964.00;4992843;28;20435;-72
2021/03/09 09:30:44;;;;;;;21.05;11.68;;;;;;;7.16;57.40;98956.13;4993721;28;20053;-71
2021/03/09 09:33:11;;;;;;;17.08;10.95;;;;;;;7.31;57.53;98953.47;4992461;28;20053;-71
2021/03/09 09:35:38;;;;;;;22.88;12.07;;;;;;;6.77;58.54;98962.38;5001107;28;20018;-71
2021/03/09 09:38:14;;;;;;;22.45;12.20;;;;;;;7.11;57.87;98959.34;4994117;28;20101;-73
2021/03/09 09:40:45;;;;;;;22.10;11.73;;;;;;;7.52;57.23;98967.16;5005572;28;20065;-66
2021/03/09 09:43:13;;;;;;;20.25;11.77;;;;;;;7.54;57.57;98954.31;4978561;28;20026;-66
2021/03/09 09:45:42;;;;;;;19.40;11.45;;;;;;;7.99;56.83;98958.00;4995885;28;20029;-70
2021/03/09 09:48:09;;;;;;;;;;;;;;;7.98;56.39;98963.56;5002950;28;20037;-66
2021/03/09 09:50:35;;;;;;;16.90;10.75;;;;;;;8.42;55.33;98952.84;5006799;28;19922;-65
2021/03/09 09:53:02;;;;;;;22.63;11.20;;;;;;;8.48;53.72;98960.19;5007078;28;20049;-66
2021/03/09 09:55:30;;;;;;;21.05;11.90;;;;;;;8.37;54.56;98963.31;4982564;28;20193;-69
2021/03/09 09:57:58;;;;;;;19.67;11.48;;;;;;;7.79;54.84;98951.44;5005079;28;20034;-71
2021/03/09 10:00:32;;;;;;;19.25;11.40;;;;;;;8.12;55.46;98957.34;4993178;28;20138;-70
2021/03/09 10:03:09;;;;;;;23.50;11.98;;;;;;;8.22;54.96;98944.44;4985363;28;20105;-69
2021/03/09 10:05:35;;;;;;;19.65;11.68;;;;;;;8.82;53.67;98957.94;5002487;28;20034;-68
2021/03/09 10:08:00;;;;;;;20.67;11.27;;;;;;;8.82;52.67;98948.00;4991417;28;20031;-69
2021/03/09 10:10:26;;;;;;;23.33;13.82;;;;;;;8.89;53.04;98951.63;5001092;28;20096;-68
2021/03/09 10:12:51;;;;;;;19.27;11.13;;;;;;;9.41;52.32;98944.31;4995904;28;20027;-73
2021/03/09 10:15:18;;;;;;;18.95;12.40;;;;;;;9.64;51.71;98957.59;5007625;28;20034;-66
2021/03/09 10:17:44;;;;;;;16.25;10.73;;;;;;;9.90;51.15;98950.75;4991004;28;20026;-66
2021/03/09 10:20:19;;;;;;;19.88;11.88;;;;;;;9.87;51.19;98957.38;5010156;28;20042;-66
2021/03/09 10:22:45;;;;;;;22.25;11.35;;;;;;;9.96;50.33;98956.22;5003799;28;20026;-66
2021/03/09 10:25:13;;;;;;;21.83;12.75;;;;;;;10.14;50.90;98947.63;5000466;28;20029;-66
2021/03/09 10:27:39;;;;;;;16.65;11.45;;;;;;;10.09;50.26;98961.75;4993045;28;20045;-76
2021/03/09 10:30:05;;;;;;;17.98;12.18;;;;;;;10.85;49.25;98939.34;4988595;28;20051;-75
2021/03/09 10:32:47;;;;;;;19.20;11.45;;;;;;;10.62;50.46;98961.28;4994282;28;20073;-74
2021/03/09 10:35:12;;;;;;;18.58;11.30;;;;;;;11.17;48.70;98950.47;4993150;28;20033;-74
2021/03/09 10:37:40;;;;;;;23.65;12.55;;;;;;;10.62;49.20;98955.88;5011205;28;20470;-74
2021/03/09 10:40:08;;;;;;;16.48;10.90;;;;;;;10.88;49.21;98943.50;5001736;28;20033;-74
2021/03/09 10:42:48;;;;;;;22.05;12.05;;;;;;;11.05;48.52;98942.09;5011173;28;20056;-74
2021/03/09 10:45:20;;;;;;;19.90;12.20;;;;;;;10.81;47.40;98939.94;4990567;28;20046;-74
2021/03/09 10:47:48;;;;;;;28.15;12.57;;;;;;;10.86;48.86;98943.69;4997161;28;20034;-74
2021/03/09 10:50:15;;;;;;;16.05;11.02;;;;;;;10.86;48.29;98943.69;4998940;28;20528;-74
2021/03/09 10:52:41;;;;;;;20.23;12.05;;;;;;;11.09;48.89;98929.84;4976869;28;20510;-74
2021/03/09 10:55:06;;;;;;;18.65;11.70;;;;;;;11.00;48.92;98935.63;4986693;28;20027;-74
2021/03/09 10:57:32;;;;;;;19.58;12.25;;;;;;;10.58;48.36;98919.41;4986460;28;20396;-74
2021/03/09 10:59:57;;;;;;;21.33;12.27;;;;;;;10.92;48.69;98925.81;4992800;28;20088;-74
2021/03/09 11:02:23;;;;;;;18.67;10.80;;;;;;;10.52;48.93;98925.63;4999408;28;20029;-74
2021/03/09 11:04:48;;;;;;;17.65;11.32;;;;;;;10.94;48.28;98937.28;4999072;28;20029;-75
2021/03/09 11:07:13;;;;;;;19.10;11.77;;;;;;;11.29;47.63;98905.53;5001126;28;20113;-75
2021/03/09 11:09:38;;;;;;;19.02;11.55;;;;;;;11.43;47.16;98938.06;5006912;28;20087;-75
2021/03/09 11:12:04;;;;;;;18.67;12.10;;;;;;;11.25;46.55;98919.69;5023596;28;20048;-75
2021/03/09 11:14:29;;;;;;;17.38;11.32;;;;;;;11.67;45.75;98923.91;5004616;28;20040;-76
2021/03/09 11:16:55;;;;;;;15.70;11.32;;;;;;;12.24;45.13;98929.75;4990002;28;20106;-76
2021/03/09 11:19:20;;;;;;;16.20;10.38;;;;;;;12.21;45.35;98920.16;4986905;28;20033;-76
2021/03/09 11:21:45;;;;;;;16.02;10.57;;;;;;;12.66;43.25;98911.28;4977471;28;20535;-76
2021/03/09 11:24:11;;;;;;;17.35;10.50;;;;;;;11.04;46.01;98929.59;4994325;28;20064;-76
2021/03/09 11:26:36;;;;;;;16.05;10.18;;;;;;;11.67;45.38;98925.78;5004011;28;20035;-64
2021/03/09 11:29:02;;;;;;;14.65;8.85;;;;;;;12.27;43.01;98926.63;4994532;28;20441;-63
2021/03/09 11:31:28;;;;;;;13.77;8.90;;;;;;;12.48;42.22;98926.34;4976650;28;20031;-69